createdAt,value
2022-11-04T00:00:46.886Z,98333.16
2022-11-04T00:03:32.594Z,98333.88
2022-11-04T00:06:17.800Z,98289.28
2022-11-04T00:09:04.950Z,98360.66
2022-11-04T00:12:09.434Z,98142.66
2022-11-04T00:15:14.780Z,98278.97
2022-11-04T00:18:00.368Z,98132.75
2022-11-04T00:21:04.324Z,98352.91
2022-11-04T00:24:08.130Z,98282.44
2022-11-04T00:27:12.238Z,98188.66
2022-11-04T00:29:57.791Z,98321.59
2022-11-04T00:33:02.004Z,98124.88
2022-11-04T00:35:51.748Z,98319.53
2022-11-04T00:38:37.429Z,98202.34
2022-11-04T00:41:30.171Z,98311.75
2022-11-04T00:44:16.292Z,98220.41
2022-11-04T00:47:01.784Z,98306.97
2022-11-04T00:49:47.193Z,98275.63
2022-11-04T00:52:32.699Z,98086.16
2022-11-04T00:55:18.215Z,98178.94
2022-11-04T00:58:03.564Z,98295.59
2022-11-04T01:00:49.004Z,98244.41
2022-11-04T01:03:34.350Z,98277.78
2022-11-04T01:06:21.723Z,98227.13
2022-11-04T01:09:08.985Z,98265.78
2022-11-04T01:11:54.433Z,98058.59
2022-11-04T01:14:39.952Z,98250.25
2022-11-04T01:17:25.265Z,98109.53
2022-11-04T01:20:11.297Z,98189.47
2022-11-04T01:22:56.864Z,98216.66
2022-11-04T01:25:42.333Z,98081.13
2022-11-04T01:28:27.915Z,98194.56
2022-11-04T01:31:16.054Z,98265.44
2022-11-04T01:34:02.212Z,98259.28
2022-11-04T01:36:47.631Z,98050.19
2022-11-04T01:39:32.941Z,98169.09
2022-11-04T01:42:22.290Z,98059.00
2022-11-04T01:45:14.795Z,98270.44
2022-11-04T01:48:30.117Z,98238.78
2022-11-04T01:51:16.017Z,98088.47
2022-11-04T01:54:03.581Z,98018.13
2022-11-04T01:56:50.039Z,98239.03
2022-11-04T01:59:38.938Z,98205.06
2022-11-04T02:02:24.116Z,98224.44
2022-11-04T02:05:10.658Z,98228.66
2022-11-04T02:07:58.294Z,98218.75
2022-11-04T02:10:54.976Z,98008.72
2022-11-04T02:13:40.621Z,98235.00
2022-11-04T02:16:44.213Z,98048.22
2022-11-04T02:20:05.788Z,98193.31
2022-11-04T02:23:28.461Z,97990.59
2022-11-04T02:26:38.965Z,98178.91
2022-11-04T02:29:52.267Z,98110.63
2022-11-04T02:32:46.713Z,98173.53
2022-11-04T02:35:50.492Z,98117.53
2022-11-04T02:38:53.085Z,98084.63
2022-11-04T02:41:56.820Z,98188.00
2022-11-04T02:44:50.752Z,98193.09
2022-11-04T02:47:40.186Z,98140.53
2022-11-04T02:50:37.844Z,98149.19
2022-11-04T02:53:47.618Z,98155.59
2022-11-04T02:56:38.791Z,98129.63
2022-11-04T02:59:42.241Z,98138.88
2022-11-04T03:02:40.167Z,98146.22
2022-11-04T03:05:33.806Z,98096.56
2022-11-04T03:08:26.925Z,98130.78
2022-11-04T03:11:15.918Z,98110.69
2022-11-04T03:14:26.699Z,98133.72
2022-11-04T03:17:26.315Z,98142.47
2022-11-04T03:20:25.235Z,97967.00
2022-11-04T03:23:11.785Z,98121.19
2022-11-04T03:26:15.235Z,98118.66
2022-11-04T03:29:15.854Z,98126.41
2022-11-04T03:32:23.157Z,98115.84
2022-11-04T03:35:11.183Z,97997.03
2022-11-04T03:37:57.612Z,97904.75
2022-11-04T03:40:43.171Z,98101.50
2022-11-04T03:43:30.739Z,98119.44
2022-11-04T03:46:16.240Z,98123.69
2022-11-04T03:49:02.922Z,98126.41
2022-11-04T03:51:49.334Z,98123.16
2022-11-04T03:54:36.298Z,98116.97
2022-11-04T03:57:39.912Z,97931.03
2022-11-04T04:00:30.115Z,98136.34
2022-11-04T04:03:22.429Z,98081.84
2022-11-04T04:06:15.558Z,98153.47
2022-11-04T04:09:21.239Z,97922.53
2022-11-04T04:12:16.330Z,98123.69
2022-11-04T04:15:13.411Z,97974.38
2022-11-04T04:18:03.560Z,98100.06
2022-11-04T04:20:52.185Z,98113.31
2022-11-04T04:24:00.403Z,98157.22
2022-11-04T04:27:05.822Z,98018.00
2022-11-04T04:29:53.389Z,98020.63
2022-11-04T04:33:01.386Z,97895.22
2022-11-04T04:35:54.422Z,98123.63
2022-11-04T04:38:59.805Z,98010.41
2022-11-04T04:42:07.496Z,98093.44
2022-11-04T04:45:05.972Z,98036.03
2022-11-04T04:47:52.573Z,98072.63
2022-11-04T04:50:43.746Z,98087.34
2022-11-04T04:53:32.581Z,98078.16
2022-11-04T04:56:21.424Z,97889.03
2022-11-04T04:59:08.062Z,98121.47
2022-11-04T05:01:53.988Z,98079.09
2022-11-04T05:04:40.932Z,98083.13
2022-11-04T05:07:27.245Z,98019.50
2022-11-04T05:10:14.909Z,98073.00
2022-11-04T05:13:20.589Z,98093.22
2022-11-04T05:16:09.205Z,97938.13
2022-11-04T05:18:54.919Z,98063.09
2022-11-04T05:21:41.042Z,98030.22
2022-11-04T05:24:26.897Z,98107.28
2022-11-04T05:27:13.053Z,98082.66
2022-11-04T05:29:59.323Z,98115.91
2022-11-04T05:32:46.277Z,98117.38
2022-11-04T05:35:32.786Z,98078.00
2022-11-04T05:38:18.759Z,98113.31
2022-11-04T05:41:06.261Z,98067.22
2022-11-04T05:43:53.889Z,98044.06
2022-11-04T05:46:39.941Z,98104.00
2022-11-04T05:49:25.978Z,98081.34
2022-11-04T05:52:11.830Z,98091.72
2022-11-04T05:54:57.474Z,98126.53
2022-11-04T05:57:43.745Z,98119.59
2022-11-04T06:00:29.485Z,98105.66
2022-11-04T06:03:16.345Z,98057.88
2022-11-04T06:06:02.843Z,98095.91
2022-11-04T06:08:50.836Z,98095.50
2022-11-04T06:11:37.299Z,98095.25
2022-11-04T06:14:25.187Z,98102.66
2022-11-04T06:17:20.930Z,98099.13
2022-11-04T06:20:08.951Z,98093.34
2022-11-04T06:22:55.676Z,98094.13
2022-11-04T06:25:41.575Z,98094.53
2022-11-04T06:28:28.407Z,98090.03
2022-11-04T06:31:15.673Z,98090.63
2022-11-04T06:34:10.713Z,98096.50
2022-11-04T06:36:58.333Z,98053.53
2022-11-04T06:39:46.389Z,98086.69
2022-11-04T06:42:33.193Z,98076.88
2022-11-04T06:45:18.962Z,98067.72
2022-11-04T06:48:04.774Z,98065.06
2022-11-04T06:50:51.096Z,98037.69
2022-11-04T06:53:36.926Z,97922.75
2022-11-04T06:56:23.204Z,98070.09
2022-11-04T06:59:16.217Z,98079.28
2022-11-04T07:02:02.298Z,98063.91
2022-11-04T07:04:48.765Z,97990.78
2022-11-04T07:07:35.044Z,98065.19
2022-11-04T07:10:20.611Z,97878.97
2022-11-04T07:13:06.983Z,98021.19
2022-11-04T07:15:53.943Z,98053.19
2022-11-04T07:18:39.858Z,98065.13
2022-11-04T07:21:26.182Z,97854.88
2022-11-04T07:24:11.816Z,98049.34
2022-11-04T07:26:57.713Z,98015.94
2022-11-04T07:29:43.630Z,98035.75
2022-11-04T07:32:29.811Z,97981.06
2022-11-04T07:35:16.610Z,98025.09
2022-11-04T07:38:04.388Z,98015.91
2022-11-04T07:40:50.554Z,98031.66
2022-11-04T07:43:36.311Z,98031.66
2022-11-04T07:46:22.409Z,98014.03
2022-11-04T07:49:08.234Z,98025.38
2022-11-04T07:51:54.122Z,98009.00
2022-11-04T07:54:39.699Z,98008.81
2022-11-04T07:57:25.392Z,97969.22
2022-11-04T08:00:12.776Z,98009.13
2022-11-04T08:02:58.609Z,98014.94
2022-11-04T08:05:44.761Z,98001.13
2022-11-04T08:08:32.494Z,97996.31
2022-11-04T08:11:21.294Z,97991.38
2022-11-04T08:14:07.440Z,97994.59
2022-11-04T08:16:53.491Z,97965.63
2022-11-04T08:19:39.149Z,97821.53
2022-11-04T08:22:27.599Z,98002.00
2022-11-04T08:25:17.974Z,97990.75
2022-11-04T08:28:04.340Z,98002.25
2022-11-04T08:30:52.932Z,98000.13
2022-11-04T08:33:39.176Z,98000.81
2022-11-04T08:36:32.041Z,97853.31
2022-11-04T08:39:18.791Z,97985.81
2022-11-04T08:42:05.033Z,97912.50
2022-11-04T08:44:52.317Z,97965.16
2022-11-04T08:47:38.761Z,97986.47
2022-11-04T08:50:28.145Z,97947.81
2022-11-04T08:53:13.563Z,97815.66
2022-11-04T08:55:59.161Z,97891.03
2022-11-04T08:58:45.002Z,97974.03
2022-11-04T09:01:35.831Z,97956.66
2022-11-04T09:04:22.066Z,97762.91
2022-11-04T09:07:08.363Z,97830.16
2022-11-04T09:09:54.932Z,97917.72
2022-11-04T09:12:40.484Z,97925.34
2022-11-04T09:15:26.362Z,97945.28
2022-11-04T09:18:12.373Z,97941.69
2022-11-04T09:21:03.022Z,97777.44
2022-11-04T09:23:49.307Z,97927.81
2022-11-04T09:26:35.520Z,97859.63
2022-11-04T09:29:21.507Z,97751.34
2022-11-04T09:32:08.521Z,97743.25
2022-11-04T09:34:54.522Z,97929.53
2022-11-04T09:37:40.200Z,97874.66
2022-11-04T09:40:26.459Z,97878.47
2022-11-04T09:43:38.254Z,97916.34
2022-11-04T09:46:27.112Z,97923.31
2022-11-04T09:49:14.010Z,97773.78
2022-11-04T09:52:05.123Z,97879.94
2022-11-04T09:54:58.681Z,97920.06
2022-11-04T09:57:44.674Z,97895.88
2022-11-04T10:00:33.663Z,97870.59
2022-11-04T10:03:37.268Z,97760.53
2022-11-04T10:06:38.710Z,97876.09
2022-11-04T10:09:30.885Z,97855.69
2022-11-04T10:12:42.211Z,97866.78
2022-11-04T10:15:27.475Z,97881.06
2022-11-04T10:18:38.301Z,97859.19
2022-11-04T10:21:40.505Z,97856.56
2022-11-04T10:24:43.466Z,97843.13
2022-11-04T10:27:35.093Z,97798.53
2022-11-04T10:30:26.275Z,97654.28
2022-11-04T10:33:17.538Z,97796.63
2022-11-04T10:36:07.810Z,97847.03
2022-11-04T10:38:56.306Z,97836.38
2022-11-04T10:41:42.289Z,97767.63
2022-11-04T10:44:32.893Z,97758.75
2022-11-04T10:47:45.362Z,97838.53
2022-11-04T10:50:39.766Z,97801.28
2022-11-04T10:53:33.234Z,97810.38
2022-11-04T10:56:39.848Z,97802.97
2022-11-04T10:59:50.349Z,97835.44
2022-11-04T11:02:48.649Z,97744.81
2022-11-04T11:05:34.075Z,97780.03
2022-11-04T11:08:32.906Z,97808.25
2022-11-04T11:11:37.563Z,97798.59
2022-11-04T11:14:29.579Z,97831.16
2022-11-04T11:17:15.295Z,97737.59
2022-11-04T11:20:08.048Z,97747.16
2022-11-04T11:22:55.879Z,97798.53
2022-11-04T11:25:49.828Z,97797.47
2022-11-04T11:28:38.973Z,97785.53
2022-11-04T11:31:26.833Z,97783.59
2022-11-04T11:34:22.511Z,97789.69
2022-11-04T11:37:22.272Z,97723.03
2022-11-04T11:40:26.278Z,97783.22
2022-11-04T11:43:31.565Z,97703.22
2022-11-04T11:46:23.494Z,97622.22
2022-11-04T11:49:24.405Z,97793.28
2022-11-04T11:52:34.203Z,97783.75
2022-11-04T11:55:58.996Z,97777.03
2022-11-04T12:02:35.194Z,97766.16
2022-11-04T12:09:19.013Z,97589.06
2022-11-04T12:12:19.922Z,97766.16
2022-11-04T12:15:41.460Z,97753.50
2022-11-04T12:19:04.863Z,97749.97
2022-11-04T12:21:58.212Z,97748.97
2022-11-04T12:24:53.400Z,97757.44
2022-11-04T12:28:04.466Z,97757.44
2022-11-04T12:31:15.218Z,97753.34
2022-11-04T12:34:19.889Z,97749.25
2022-11-04T12:37:16.936Z,97651.97
2022-11-04T12:40:22.206Z,97749.50
2022-11-04T12:43:50.386Z,97589.88
2022-11-04T12:47:02.858Z,97738.69
2022-11-04T12:49:57.808Z,97740.16
2022-11-04T12:53:21.121Z,97746.56
2022-11-04T12:56:12.684Z,97740.44
2022-11-04T12:59:17.172Z,97741.84
2022-11-04T13:02:15.044Z,97734.88
2022-11-04T13:05:21.219Z,97739.69
2022-11-04T13:08:33.843Z,97750.19
2022-11-04T13:11:39.068Z,97751.53
2022-11-04T13:14:30.183Z,97713.28
2022-11-04T13:17:20.507Z,97723.66
2022-11-04T13:20:14.309Z,97778.34
2022-11-04T13:23:05.873Z,97741.41
2022-11-04T13:25:53.215Z,97720.69
2022-11-04T13:28:42.183Z,97737.09
2022-11-04T13:31:37.668Z,97743.66
2022-11-04T13:35:15.252Z,97749.44
2022-11-04T13:38:13.898Z,97720.84
2022-11-04T13:41:46.366Z,97752.09
2022-11-04T13:44:42.671Z,97630.44
2022-11-04T13:47:36.791Z,97751.84
2022-11-04T13:50:38.161Z,97744.09
2022-11-04T13:53:44.740Z,97704.69
2022-11-04T13:56:40.629Z,97743.13
2022-11-04T13:59:30.096Z,97733.91
2022-11-04T14:02:19.497Z,97733.91
2022-11-04T14:05:23.839Z,97697.81
2022-11-04T14:08:16.954Z,97721.22
2022-11-04T14:11:07.813Z,97563.88
2022-11-04T14:14:19.984Z,97726.16
2022-11-04T14:17:37.466Z,97730.34
2022-11-04T14:20:33.604Z,97720.28
2022-11-04T14:23:24.748Z,97693.59
2022-11-04T14:26:13.946Z,97679.53
2022-11-04T14:29:19.022Z,97724.06
2022-11-04T14:32:13.162Z,97728.88
2022-11-04T14:35:07.063Z,97739.72
2022-11-04T14:37:55.961Z,97743.56
2022-11-04T14:41:13.740Z,97764.06
2022-11-04T14:44:15.638Z,97738.66
2022-11-04T14:47:16.327Z,97728.81
2022-11-04T14:50:06.091Z,97747.03
2022-11-04T14:53:02.701Z,97714.56
2022-11-04T14:56:02.340Z,97737.31
2022-11-04T14:59:01.804Z,97732.66
2022-11-04T15:01:49.944Z,97707.59
2022-11-04T15:04:36.053Z,97692.97
2022-11-04T15:07:33.547Z,97561.63
2022-11-04T15:10:20.143Z,97728.66
2022-11-04T15:13:06.057Z,97661.31
2022-11-04T15:15:55.500Z,97743.31
2022-11-04T15:18:41.304Z,97722.03
2022-11-04T15:21:28.224Z,97713.28
2022-11-04T15:24:17.853Z,97622.75
2022-11-04T15:27:06.243Z,97641.72
2022-11-04T15:30:02.914Z,97737.97
2022-11-04T15:33:03.683Z,97690.91
2022-11-04T15:35:49.680Z,97721.34
2022-11-04T15:38:38.700Z,97689.63
2022-11-04T15:41:44.931Z,97740.16
2022-11-04T15:44:36.808Z,97739.28
2022-11-04T15:47:29.061Z,97566.66
2022-11-04T15:50:25.831Z,97547.28
2022-11-04T15:53:16.750Z,97722.88
2022-11-04T15:56:02.865Z,97669.41
2022-11-04T15:58:49.204Z,97691.09
2022-11-04T16:01:35.011Z,97572.44
2022-11-04T16:04:24.958Z,97739.66
2022-11-04T16:07:10.496Z,97741.09
2022-11-04T16:09:56.653Z,97746.63
2022-11-04T16:12:44.828Z,97749.28
2022-11-04T16:15:38.683Z,97757.44
2022-11-04T16:18:58.403Z,97759.31
2022-11-04T16:21:45.194Z,97723.31
2022-11-04T16:24:34.980Z,97776.19
2022-11-04T16:27:23.113Z,97619.16
2022-11-04T16:30:20.942Z,97685.31
2022-11-04T16:33:11.748Z,97734.84
2022-11-04T16:35:58.242Z,97703.81
2022-11-04T16:38:44.151Z,97736.28
2022-11-04T16:41:34.462Z,97702.78
2022-11-04T16:44:22.720Z,97741.09
2022-11-04T16:47:10.576Z,97607.94
2022-11-04T16:50:14.345Z,97707.00
2022-11-04T16:53:01.786Z,97674.34
2022-11-04T16:55:47.720Z,97713.41
2022-11-04T16:58:33.686Z,97733.06
2022-11-04T17:01:21.251Z,97576.78
2022-11-04T17:04:07.757Z,97559.88
2022-11-04T17:06:53.213Z,97565.72
2022-11-04T17:09:38.707Z,97667.34
2022-11-04T17:12:24.697Z,97721.56
2022-11-04T17:15:11.245Z,97693.59
2022-11-04T17:17:56.780Z,97696.94
2022-11-04T17:20:45.016Z,97726.22
2022-11-04T17:23:31.665Z,97730.19
2022-11-04T17:26:17.394Z,97501.59
2022-11-04T17:29:03.933Z,97600.66
2022-11-04T17:31:50.119Z,97618.13
2022-11-04T17:34:36.253Z,97622.94
2022-11-04T17:37:21.719Z,97712.81
2022-11-04T17:40:08.990Z,97563.81
2022-11-04T17:43:13.518Z,97719.81
2022-11-04T17:46:19.984Z,97643.19
2022-11-04T17:49:16.773Z,97715.88
2022-11-04T17:52:03.148Z,97700.28
2022-11-04T17:54:49.254Z,97656.75
2022-11-04T17:57:35.637Z,97718.63
2022-11-04T18:00:24.368Z,97718.94
2022-11-04T18:03:12.517Z,97635.31
2022-11-04T18:05:59.182Z,97540.66
2022-11-04T18:08:44.691Z,97715.16
2022-11-04T18:11:49.775Z,97680.78
2022-11-04T18:14:35.550Z,97703.78
2022-11-04T18:17:26.876Z,97701.31
2022-11-04T18:20:15.796Z,97556.59
2022-11-04T18:23:02.054Z,97637.34
2022-11-04T18:25:50.663Z,97516.31
2022-11-04T18:28:40.334Z,97666.47
2022-11-04T18:31:34.239Z,97536.81
2022-11-04T18:34:20.263Z,97564.50
2022-11-04T18:37:06.182Z,97539.56
2022-11-04T18:39:52.074Z,97662.97
2022-11-04T18:42:37.611Z,97532.00
2022-11-04T18:45:23.865Z,97661.53
2022-11-04T18:48:10.302Z,97698.22
2022-11-04T18:50:59.650Z,97527.91
2022-11-04T18:53:46.193Z,97671.88
2022-11-04T18:56:31.829Z,97664.59
2022-11-04T18:59:18.746Z,97687.31
2022-11-04T19:02:06.783Z,97665.72
2022-11-04T19:04:53.388Z,97521.63
2022-11-04T19:07:42.116Z,97696.91
2022-11-04T19:10:29.040Z,97638.91
2022-11-04T19:13:20.844Z,97690.06
2022-11-04T19:16:13.459Z,97624.78
2022-11-04T19:19:01.893Z,97624.66
2022-11-04T19:21:50.888Z,97690.06
2022-11-04T19:24:38.974Z,97694.84
2022-11-04T19:27:25.180Z,97700.38
2022-11-04T19:30:11.582Z,97687.16
2022-11-04T19:32:58.456Z,97682.75
2022-11-04T19:35:45.438Z,97657.38
2022-11-04T19:38:31.594Z,97726.84
2022-11-04T19:41:36.780Z,97533.63
2022-11-04T19:44:22.476Z,97477.69
2022-11-04T19:47:09.391Z,97527.38
2022-11-04T19:49:55.808Z,97695.97
2022-11-04T19:52:41.466Z,97522.22
2022-11-04T19:55:27.459Z,97696.25
2022-11-04T19:58:13.470Z,97625.59
2022-11-04T20:01:07.199Z,97541.88
2022-11-04T20:03:52.667Z,97720.88
2022-11-04T20:06:38.493Z,97709.22
2022-11-04T20:09:25.991Z,97654.53
2022-11-04T20:12:30.210Z,97677.72
2022-11-04T20:15:16.947Z,97578.97
2022-11-04T20:18:02.430Z,97684.72
2022-11-04T20:20:47.835Z,97487.78
2022-11-04T20:23:33.311Z,97703.91
2022-11-04T20:26:24.229Z,97544.81
2022-11-04T20:29:11.641Z,97568.59
2022-11-04T20:31:57.195Z,97704.22
2022-11-04T20:34:42.649Z,97710.06
2022-11-04T20:37:28.089Z,97688.03
2022-11-04T20:40:14.094Z,97546.59
2022-11-04T20:43:00.710Z,97662.09
2022-11-04T20:45:52.084Z,97706.41
2022-11-04T20:48:38.816Z,97654.03
2022-11-04T20:51:30.750Z,97573.00
2022-11-04T20:54:16.614Z,97713.28
2022-11-04T20:57:02.671Z,97700.69
2022-11-04T20:59:48.053Z,97643.59
2022-11-04T21:02:33.608Z,97550.72
2022-11-04T21:05:20.066Z,97641.81
2022-11-04T21:08:05.656Z,97728.78
2022-11-04T21:10:53.163Z,97705.66
2022-11-04T21:13:38.895Z,97667.31
2022-11-04T21:16:24.687Z,97668.50
2022-11-04T21:19:12.137Z,97686.75
2022-11-04T21:21:57.988Z,97702.78
2022-11-04T21:24:43.611Z,97645.88
2022-11-04T21:27:28.873Z,97695.78
2022-11-04T21:30:14.384Z,97566.84
2022-11-04T21:32:59.904Z,97543.97
2022-11-04T21:35:47.344Z,97726.03
2022-11-04T21:38:33.801Z,97718.72
2022-11-04T21:41:24.377Z,97648.22
2022-11-04T21:44:12.774Z,97688.94
2022-11-04T21:46:58.598Z,97654.03
2022-11-04T21:49:43.930Z,97671.34
2022-11-04T21:52:29.622Z,97704.16
2022-11-04T21:55:15.984Z,97699.66
2022-11-04T21:58:01.919Z,97713.75
2022-11-04T22:00:55.291Z,97681.75
2022-11-04T22:03:41.059Z,97691.34
2022-11-04T22:06:34.636Z,97545.34
2022-11-04T22:09:22.077Z,97517.16
2022-11-04T22:12:07.447Z,97540.06
2022-11-04T22:14:52.891Z,97662.47
2022-11-04T22:17:38.345Z,97509.59
2022-11-04T22:20:23.826Z,97605.03
2022-11-04T22:23:09.620Z,97716.38
2022-11-04T22:26:07.137Z,97708.72
2022-11-04T22:28:53.983Z,97670.09
2022-11-04T22:31:41.339Z,97642.16
2022-11-04T22:34:27.168Z,97625.97
2022-11-04T22:37:13.458Z,97555.63
2022-11-04T22:39:58.582Z,97688.22
2022-11-04T22:42:44.082Z,97552.53
2022-11-04T22:45:29.472Z,97697.78
2022-11-04T22:48:15.040Z,97655.41
2022-11-04T22:51:00.618Z,97712.97
2022-11-04T22:53:51.262Z,97574.28
2022-11-04T22:56:39.455Z,97539.25
2022-11-04T22:59:25.451Z,97702.84
2022-11-04T23:02:11.069Z,97717.75
2022-11-04T23:04:57.012Z,97508.78
2022-11-04T23:07:42.715Z,97527.94
2022-11-04T23:10:48.024Z,97663.91
2022-11-04T23:13:53.077Z,97654.53
2022-11-04T23:16:57.386Z,97564.53
2022-11-04T23:19:42.622Z,97707.75
2022-11-04T23:22:46.537Z,97557.50
2022-11-04T23:25:31.957Z,97676.81
2022-11-04T23:28:35.755Z,97700.91
2022-11-04T23:31:20.998Z,97650.13
2022-11-04T23:34:24.864Z,97573.22
2022-11-04T23:37:13.962Z,97531.41
2022-11-04T23:39:59.639Z,97702.94
2022-11-04T23:42:45.516Z,97614.81
2022-11-04T23:45:50.205Z,97520.94
2022-11-04T23:48:54.063Z,97704.81
2022-11-04T23:51:58.310Z,97650.81
2022-11-04T23:55:02.690Z,97679.53
2022-11-04T23:58:06.715Z,97712.59
